ADDS METAR Data INFO
IDs: Format: Raw Decoded Include TAF

Data at: 1531 UTC 18 Jun 2018

KVTA 181454Z AUTO 24006KT 10SM CLR 30/23 A3008 RMK AO2 SLP177 T03000233 50001
KVTA 181354Z AUTO 24006KT 10SM CLR 29/23 A3008 RMK AO2 SLP178 T02890233
KVTA 181254Z AUTO VRB03KT 10SM CLR 27/23 A3008 RMK AO2 SLP178 T02670228
KVTA 181154Z AUTO 00000KT 8SM CLR 23/22 A3008 RMK AO2 SLP176 T02330217 10239 20206 53001
KVTA 181054Z AUTO 00000KT 7SM CLR 21/20 A3007 RMK AO2 SLP175 T02110200
KVTA 180954Z AUTO 00000KT 6SM BR CLR 21/20 A3007 RMK AO2 SLP175 T02110200
KVTA 180854Z AUTO 00000KT 6SM BR CLR 21/20 A3007 RMK AO2 SLP175 T02110200 55005
KVTA 180754Z AUTO 00000KT 8SM CLR 21/20 A3007 RMK AO2 SLP174 T02110200
KVTA 180654Z AUTO 00000KT 8SM CLR 22/21 A3007 RMK AO2 SLP175 T02170206
KVTA 180554Z AUTO 00000KT 10SM CLR 23/21 A3009 RMK AO2 SLP180 T02280206 10294 20217 53006
KVTA 180454Z AUTO 00000KT 10SM CLR 23/21 A3008 RMK AO2 SLP179 T02280211 403280189
KVTA 180354Z AUTO 00000KT 10SM CLR 23/21 A3007 RMK AO2 SLP175 T02330211
KVTA 180254Z AUTO 00000KT 10SM CLR 24/21 A3007 RMK AO2 SLP174 T02390211 53009
KVTA 180154Z AUTO 00000KT 10SM CLR 26/21 A3006 RMK AO2 SLP170 T02610206
KVTA 180054Z AUTO 00000KT 10SM CLR 27/22 A3005 RMK AO2 SLP166 T02720217
KVTA 172354Z AUTO 19003KT 10SM CLR 29/23 A3004 RMK AO2 SLP165 T02940228 10328 20294 58008
KVTA 172254Z AUTO 20006KT 10SM CLR 31/22 A3005 RMK AO2 SLP169 T03110222
KVTA 172154Z AUTO 15010KT 10SM CLR 31/23 A3006 RMK AO2 SLP172 T03110228
KVTA 172054Z AUTO 18009KT 10SM CLR 32/23 A3007 RMK AO2 SLP174 T03170233 56009
KVTA 171954Z AUTO 23006KT 10SM CLR 32/23 A3008 RMK AO2 LTG DSNT SE AND S SLP177 T03220228
KVTA 171854Z AUTO 29004KT 10SM CLR 32/23 A3008 RMK AO2 LTG DSNT E-S SLP176 T03170233
KVTA 171754Z AUTO 31006KT 10SM FEW044 32/23 A3010 RMK AO2 LTG DSNT NE AND SW SLP183 T03220233 10322 20217 58006
KVTA 171654Z AUTO VRB04KT 10SM FEW034 32/23 A3010 RMK AO2 SLP185 T03170233
KVTA 171554Z AUTO VRB04KT 10SM FEW033 SCT044 31/23 A3012 RMK AO2 SLP191 T03110233
KVTA 171454Z AUTO VRB03KT 10SM CLR 30/23 A3011 RMK AO2 SLP190 T03000233 51006
KVTA 171354Z AUTO 00000KT 10SM CLR 28/23 A3011 RMK AO2 SLP187 T02780228
KVTA 171254Z AUTO 00000KT 10SM CLR 24/22 A3011 RMK AO2 SLP189 T02440217
KVTA 171154Z AUTO 00000KT 8SM CLR 22/21 A3010 RMK AO2 SLP185 70031 T02170206 10217 20189 51017
KVTA 171054Z AUTO 00000KT 5SM BR CLR 20/19 A3008 RMK AO2 SLP181 T02000189
KVTA 170954Z AUTO 00000KT 4SM BR CLR 19/18 A3007 RMK AO2 SLP176 T01890183
KVTA 170912Z AUTO 00000KT 3SM BR CLR 19/18 A3005 RMK AO2 T01940183
KVTA 170854Z AUTO 00000KT 1 1/4SM BR CLR 19/18 A3004 RMK AO2 SLP168 T01890183 55000
KVTA 170852Z AUTO 00000KT 1 3/4SM BR CLR 19/18 A3004 RMK AO2
KVTA 170754Z AUTO 00000KT 6SM BR CLR 19/19 A3003 RMK AO2 SLP162 T01940189
KVTA 170654Z AUTO 00000KT 9SM CLR 20/19 A3003 RMK AO2 SLP162 T02000189
KVTA 170554Z AUTO 00000KT 6SM BR CLR 20/19 A3004 RMK AO2 SLP166 60031 T02000194 10250 20200 58001
KVTA 170454Z AUTO 00000KT 10SM CLR 21/19 A3005 RMK AO2 SLP166 T02060194 403060167
KVTA 170354Z AUTO 00000KT 10SM CLR 21/19 A3005 RMK AO2 SLP169 T02060194